sensor_id;sensor_type;location;lat;lon;timestamp;P1;durP1;ratioP1;P2;durP2;ratioP2
71462;SDS011;59266;52.608;13.260;2023-03-01T00:01:15;10.77;;;4.03;;
71462;SDS011;59266;52.608;13.260;2023-03-01T00:03:46;11.88;;;4.35;;
71462;SDS011;59266;52.608;13.260;2023-03-01T00:06:14;16.65;;;5.28;;
71462;SDS011;59266;52.608;13.260;2023-03-01T00:08:41;14.32;;;5.03;;
71462;SDS011;59266;52.608;13.260;2023-03-01T00:11:10;14.68;;;4.63;;
71462;SDS011;59266;52.608;13.260;2023-03-01T00:13:40;16.38;;;5.15;;
71462;SDS011;59266;52.608;13.260;2023-03-01T00:16:09;15.07;;;5.03;;
71462;SDS011;59266;52.608;13.260;2023-03-01T00:18:38;12.68;;;4.70;;
71462;SDS011;59266;52.608;13.260;2023-03-01T00:21:05;12.50;;;4.95;;
71462;SDS011;59266;52.608;13.260;2023-03-01T00:23:33;15.10;;;4.82;;
71462;SDS011;59266;52.608;13.260;2023-03-01T00:26:00;14.15;;;5.07;;
71462;SDS011;59266;52.608;13.260;2023-03-01T00:28:26;14.18;;;4.72;;
71462;SDS011;59266;52.608;13.260;2023-03-01T00:30:53;12.45;;;5.03;;
71462;SDS011;59266;52.608;13.260;2023-03-01T00:33:19;16.75;;;4.90;;
71462;SDS011;59266;52.608;13.260;2023-03-01T00:35:46;13.05;;;4.97;;
71462;SDS011;59266;52.608;13.260;2023-03-01T00:38:12;12.55;;;4.55;;
71462;SDS011;59266;52.608;13.260;2023-03-01T00:40:39;15.27;;;5.50;;
71462;SDS011;59266;52.608;13.260;2023-03-01T00:43:06;15.00;;;5.57;;
71462;SDS011;59266;52.608;13.260;2023-03-01T00:45:32;13.60;;;5.45;;
71462;SDS011;59266;52.608;13.260;2023-03-01T00:47:59;15.27;;;5.65;;
71462;SDS011;59266;52.608;13.260;2023-03-01T00:50:26;13.02;;;5.15;;
71462;SDS011;59266;52.608;13.260;2023-03-01T00:52:55;17.75;;;6.18;;
71462;SDS011;59266;52.608;13.260;2023-03-01T00:55:22;16.83;;;5.57;;
71462;SDS011;59266;52.608;13.260;2023-03-01T00:57:49;15.50;;;5.00;;
71462;SDS011;59266;52.608;13.260;2023-03-01T01:00:16;13.70;;;4.72;;
71462;SDS011;59266;52.608;13.260;2023-03-01T01:02:44;16.65;;;5.50;;
71462;SDS011;59266;52.608;13.260;2023-03-01T01:05:12;14.45;;;5.20;;
71462;SDS011;59266;52.608;13.260;2023-03-01T01:07:39;13.68;;;4.93;;
71462;SDS011;59266;52.608;13.260;2023-03-01T01:10:05;14.85;;;6.07;;
71462;SDS011;59266;52.608;13.260;2023-03-01T01:12:32;16.67;;;5.38;;
71462;SDS011;59266;52.608;13.260;2023-03-01T01:14:59;17.25;;;5.80;;
71462;SDS011;59266;52.608;13.260;2023-03-01T01:17:25;14.60;;;5.32;;
71462;SDS011;59266;52.608;13.260;2023-03-01T01:19:52;15.77;;;6.57;;
71462;SDS011;59266;52.608;13.260;2023-03-01T01:22:19;14.63;;;6.22;;
71462;SDS011;59266;52.608;13.260;2023-03-01T01:24:45;19.65;;;6.05;;
71462;SDS011;59266;52.608;13.260;2023-03-01T01:27:12;14.93;;;6.05;;
71462;SDS011;59266;52.608;13.260;2023-03-01T01:29:39;15.85;;;6.38;;
71462;SDS011;59266;52.608;13.260;2023-03-01T01:32:05;17.90;;;6.72;;
71462;SDS011;59266;52.608;13.260;2023-03-01T01:34:32;15.32;;;5.75;;
71462;SDS011;59266;52.608;13.260;2023-03-01T01:36:58;16.08;;;6.07;;
71462;SDS011;59266;52.608;13.260;2023-03-01T01:39:28;19.92;;;6.43;;
71462;SDS011;59266;52.608;13.260;2023-03-01T01:41:55;15.63;;;5.72;;
71462;SDS011;59266;52.608;13.260;2023-03-01T01:44:23;17.20;;;6.05;;
71462;SDS011;59266;52.608;13.260;2023-03-01T01:46:58;20.55;;;6.47;;
71462;SDS011;59266;52.608;13.260;2023-03-01T01:49:29;14.57;;;6.68;;
71462;SDS011;59266;52.608;13.260;2023-03-01T01:52:29;17.15;;;6.63;;
71462;SDS011;59266;52.608;13.260;2023-03-01T01:55:07;16.60;;;6.20;;
71462;SDS011;59266;52.608;13.260;2023-03-01T01:57:38;16.48;;;6.10;;
71462;SDS011;59266;52.608;13.260;2023-03-01T02:00:09;15.68;;;6.28;;
71462;SDS011;59266;52.608;13.260;2023-03-01T02:02:38;17.58;;;6.95;;
71462;SDS011;59266;52.608;13.260;2023-03-01T02:05:15;19.02;;;7.03;;
71462;SDS011;59266;52.608;13.260;2023-03-01T02:07:49;14.52;;;5.95;;
71462;SDS011;59266;52.608;13.260;2023-03-01T02:10:16;19.80;;;7.20;;
71462;SDS011;59266;52.608;13.260;2023-03-01T02:12:43;19.40;;;6.25;;
71462;SDS011;59266;52.608;13.260;2023-03-01T02:15:10;17.70;;;6.55;;
71462;SDS011;59266;52.608;13.260;2023-03-01T02:17:38;19.35;;;6.03;;
71462;SDS011;59266;52.608;13.260;2023-03-01T02:20:12;18.25;;;6.88;;
71462;SDS011;59266;52.608;13.260;2023-03-01T02:22:54;15.73;;;6.55;;
71462;SDS011;59266;52.608;13.260;2023-03-01T02:25:26;16.55;;;6.50;;
71462;SDS011;59266;52.608;13.260;2023-03-01T02:28:05;17.95;;;6.32;;
71462;SDS011;59266;52.608;13.260;2023-03-01T02:30:38;18.63;;;7.07;;
71462;SDS011;59266;52.608;13.260;2023-03-01T02:33:25;17.63;;;6.60;;
71462;SDS011;59266;52.608;13.260;2023-03-01T02:35:54;15.80;;;5.85;;
71462;SDS011;59266;52.608;13.260;2023-03-01T02:38:21;20.10;;;6.85;;
71462;SDS011;59266;52.608;13.260;2023-03-01T02:40:49;17.17;;;5.55;;
71462;SDS011;59266;52.608;13.260;2023-03-01T02:43:17;16.23;;;6.70;;
71462;SDS011;59266;52.608;13.260;2023-03-01T02:45:51;18.25;;;6.65;;
71462;SDS011;59266;52.608;13.260;2023-03-01T02:48:19;19.70;;;6.40;;
71462;SDS011;59266;52.608;13.260;2023-03-01T02:50:51;19.00;;;6.68;;
71462;SDS011;59266;52.608;13.260;2023-03-01T02:53:35;14.38;;;5.38;;
71462;SDS011;59266;52.608;13.260;2023-03-01T02:56:08;15.98;;;6.03;;
71462;SDS011;59266;52.608;13.260;2023-03-01T02:58:40;16.63;;;5.53;;
71462;SDS011;59266;52.608;13.260;2023-03-01T03:01:12;16.13;;;5.95;;
71462;SDS011;59266;52.608;13.260;2023-03-01T03:03:41;18.42;;;6.20;;
71462;SDS011;59266;52.608;13.260;2023-03-01T03:06:08;17.70;;;5.80;;
71462;SDS011;59266;52.608;13.260;2023-03-01T03:08:35;16.92;;;6.65;;
71462;SDS011;59266;52.608;13.260;2023-03-01T03:11:02;17.65;;;5.35;;
71462;SDS011;59266;52.608;13.260;2023-03-01T03:13:28;18.13;;;6.32;;
71462;SDS011;59266;52.608;13.260;2023-03-01T03:15:55;16.05;;;6.03;;
71462;SDS011;59266;52.608;13.260;2023-03-01T03:18:23;17.23;;;5.85;;
71462;SDS011;59266;52.608;13.260;2023-03-01T03:20:52;16.25;;;5.95;;
71462;SDS011;59266;52.608;13.260;2023-03-01T03:23:20;17.40;;;5.80;;
71462;SDS011;59266;52.608;13.260;2023-03-01T03:25:49;16.13;;;5.95;;
71462;SDS011;59266;52.608;13.260;2023-03-01T03:28:16;18.52;;;5.88;;
71462;SDS011;59266;52.608;13.260;2023-03-01T03:30:43;12.80;;;5.18;;
71462;SDS011;59266;52.608;13.260;2023-03-01T03:33:11;16.15;;;5.55;;
71462;SDS011;59266;52.608;13.260;2023-03-01T03:35:43;15.73;;;5.50;;
71462;SDS011;59266;52.608;13.260;2023-03-01T03:40:43;18.40;;;5.78;;
71462;SDS011;59266;52.608;13.260;2023-03-01T03:43:15;14.10;;;5.60;;
71462;SDS011;59266;52.608;13.260;2023-03-01T03:45:47;13.40;;;4.70;;
71462;SDS011;59266;52.608;13.260;2023-03-01T03:48:16;12.82;;;4.68;;
71462;SDS011;59266;52.608;13.260;2023-03-01T03:50:47;13.63;;;5.25;;
71462;SDS011;59266;52.608;13.260;2023-03-01T03:53:15;14.98;;;5.15;;
71462;SDS011;59266;52.608;13.260;2023-03-01T03:55:42;14.98;;;5.70;;
71462;SDS011;59266;52.608;13.260;2023-03-01T03:58:10;11.80;;;5.05;;
71462;SDS011;59266;52.608;13.260;2023-03-01T04:00:38;14.40;;;5.05;;
71462;SDS011;59266;52.608;13.260;2023-03-01T04:03:09;13.65;;;4.90;;
71462;SDS011;59266;52.608;13.260;2023-03-01T04:05:37;15.98;;;6.20;;
71462;SDS011;59266;52.608;13.260;2023-03-01T04:08:06;14.35;;;5.65;;
71462;SDS011;59266;52.608;13.260;2023-03-01T04:10:41;18.33;;;5.70;;
71462;SDS011;59266;52.608;13.260;2023-03-01T04:13:10;15.70;;;5.55;;
71462;SDS011;59266;52.608;13.260;2023-03-01T04:15:40;15.10;;;5.00;;
71462;SDS011;59266;52.608;13.260;2023-03-01T04:18:07;13.65;;;5.63;;
71462;SDS011;59266;52.608;13.260;2023-03-01T04:20:35;17.45;;;6.40;;
71462;SDS011;59266;52.608;13.260;2023-03-01T04:23:13;13.95;;;5.35;;
71462;SDS011;59266;52.608;13.260;2023-03-01T04:25:49;19.08;;;6.40;;
71462;SDS011;59266;52.608;13.260;2023-03-01T04:28:26;14.90;;;5.20;;
71462;SDS011;59266;52.608;13.260;2023-03-01T04:31:10;13.05;;;5.80;;
71462;SDS011;59266;52.608;13.260;2023-03-01T04:33:44;17.73;;;5.38;;
71462;SDS011;59266;52.608;13.260;2023-03-01T04:36:15;15.25;;;5.57;;
71462;SDS011;59266;52.608;13.260;2023-03-01T04:38:42;16.25;;;5.82;;
71462;SDS011;59266;52.608;13.260;2023-03-01T04:41:14;15.57;;;5.53;;
71462;SDS011;59266;52.608;13.260;2023-03-01T04:43:44;17.92;;;5.68;;
71462;SDS011;59266;52.608;13.260;2023-03-01T04:46:12;15.65;;;5.90;;
71462;SDS011;59266;52.608;13.260;2023-03-01T04:48:41;17.23;;;6.13;;
71462;SDS011;59266;52.608;13.260;2023-03-01T04:51:13;17.55;;;5.40;;
71462;SDS011;59266;52.608;13.260;2023-03-01T04:53:40;12.50;;;4.97;;
71462;SDS011;59266;52.608;13.260;2023-03-01T04:56:07;18.83;;;6.03;;
71462;SDS011;59266;52.608;13.260;2023-03-01T04:58:34;19.67;;;5.97;;
71462;SDS011;59266;52.608;13.260;2023-03-01T05:01:01;14.88;;;5.80;;
71462;SDS011;59266;52.608;13.260;2023-03-01T05:03:27;14.68;;;6.32;;
71462;SDS011;59266;52.608;13.260;2023-03-01T05:05:54;17.67;;;5.88;;
71462;SDS011;59266;52.608;13.260;2023-03-01T05:08:25;15.10;;;5.30;;
71462;SDS011;59266;52.608;13.260;2023-03-01T05:10:53;18.40;;;5.45;;
71462;SDS011;59266;52.608;13.260;2023-03-01T05:13:21;13.73;;;5.72;;
71462;SDS011;59266;52.608;13.260;2023-03-01T05:15:57;17.63;;;5.60;;
71462;SDS011;59266;52.608;13.260;2023-03-01T05:18:26;14.35;;;5.65;;
71462;SDS011;59266;52.608;13.260;2023-03-01T05:20:54;17.08;;;5.43;;
71462;SDS011;59266;52.608;13.260;2023-03-01T05:23:24;18.30;;;6.32;;
71462;SDS011;59266;52.608;13.260;2023-03-01T05:25:51;18.35;;;6.00;;
71462;SDS011;59266;52.608;13.260;2023-03-01T05:28:18;18.73;;;6.38;;
71462;SDS011;59266;52.608;13.260;2023-03-01T05:30:46;14.93;;;6.53;;
71462;SDS011;59266;52.608;13.260;2023-03-01T05:33:13;15.57;;;5.65;;
71462;SDS011;59266;52.608;13.260;2023-03-01T05:35:40;14.43;;;5.10;;
71462;SDS011;59266;52.608;13.260;2023-03-01T05:38:09;20.38;;;6.35;;
71462;SDS011;59266;52.608;13.260;2023-03-01T05:40:40;16.77;;;5.97;;
71462;SDS011;59266;52.608;13.260;2023-03-01T05:43:08;16.52;;;5.93;;
71462;SDS011;59266;52.608;13.260;2023-03-01T05:45:35;20.08;;;6.10;;
71462;SDS011;59266;52.608;13.260;2023-03-01T05:48:03;15.88;;;6.18;;
71462;SDS011;59266;52.608;13.260;2023-03-01T05:50:35;16.75;;;6.20;;
71462;SDS011;59266;52.608;13.260;2023-03-01T05:53:05;14.88;;;6.15;;
71462;SDS011;59266;52.608;13.260;2023-03-01T05:55:35;20.13;;;6.60;;
71462;SDS011;59266;52.608;13.260;2023-03-01T05:58:02;16.55;;;5.65;;
71462;SDS011;59266;52.608;13.260;2023-03-01T06:00:33;15.18;;;5.25;;
71462;SDS011;59266;52.608;13.260;2023-03-01T06:03:00;21.70;;;5.72;;
71462;SDS011;59266;52.608;13.260;2023-03-01T06:05:27;17.30;;;5.45;;
71462;SDS011;59266;52.608;13.260;2023-03-01T06:07:54;14.95;;;5.82;;
71462;SDS011;59266;52.608;13.260;2023-03-01T06:10:23;16.38;;;5.78;;
71462;SDS011;59266;52.608;13.260;2023-03-01T06:12:49;18.65;;;6.18;;
71462;SDS011;59266;52.608;13.260;2023-03-01T06:15:16;15.57;;;5.80;;
71462;SDS011;59266;52.608;13.260;2023-03-01T06:17:43;13.45;;;6.10;;
71462;SDS011;59266;52.608;13.260;2023-03-01T06:22:40;16.58;;;6.40;;
71462;SDS011;59266;52.608;13.260;2023-03-01T06:25:08;14.27;;;5.68;;
71462;SDS011;59266;52.608;13.260;2023-03-01T06:27:35;15.52;;;6.72;;
71462;SDS011;59266;52.608;13.260;2023-03-01T06:30:02;17.73;;;6.68;;
71462;SDS011;59266;52.608;13.260;2023-03-01T06:32:30;16.92;;;6.50;;
71462;SDS011;59266;52.608;13.260;2023-03-01T06:34:58;22.35;;;7.25;;
71462;SDS011;59266;52.608;13.260;2023-03-01T06:37:25;15.70;;;5.72;;
71462;SDS011;59266;52.608;13.260;2023-03-01T06:39:52;19.90;;;6.93;;
71462;SDS011;59266;52.608;13.260;2023-03-01T06:42:18;17.83;;;7.47;;
71462;SDS011;59266;52.608;13.260;2023-03-01T06:44:45;20.50;;;7.35;;
71462;SDS011;59266;52.608;13.260;2023-03-01T06:47:12;20.88;;;7.35;;
71462;SDS011;59266;52.608;13.260;2023-03-01T06:49:40;21.40;;;8.32;;
71462;SDS011;59266;52.608;13.260;2023-03-01T06:52:07;20.65;;;7.93;;
71462;SDS011;59266;52.608;13.260;2023-03-01T06:54:34;21.17;;;7.95;;
71462;SDS011;59266;52.608;13.260;2023-03-01T06:57:00;20.77;;;8.18;;
71462;SDS011;59266;52.608;13.260;2023-03-01T06:59:27;21.27;;;8.00;;
71462;SDS011;59266;52.608;13.260;2023-03-01T07:01:53;21.92;;;8.60;;
71462;SDS011;59266;52.608;13.260;2023-03-01T07:04:19;23.17;;;9.65;;
71462;SDS011;59266;52.608;13.260;2023-03-01T07:06:46;20.52;;;9.23;;
71462;SDS011;59266;52.608;13.260;2023-03-01T07:09:23;19.65;;;8.63;;
71462;SDS011;59266;52.608;13.260;2023-03-01T07:11:50;22.42;;;7.47;;
71462;SDS011;59266;52.608;13.260;2023-03-01T07:14:17;18.77;;;8.02;;
71462;SDS011;59266;52.608;13.260;2023-03-01T07:16:45;19.23;;;7.60;;
71462;SDS011;59266;52.608;13.260;2023-03-01T07:19:12;18.35;;;7.53;;
71462;SDS011;59266;52.608;13.260;2023-03-01T07:21:39;16.50;;;7.40;;
71462;SDS011;59266;52.608;13.260;2023-03-01T07:24:06;18.33;;;7.75;;
71462;SDS011;59266;52.608;13.260;2023-03-01T07:26:33;18.23;;;8.20;;
71462;SDS011;59266;52.608;13.260;2023-03-01T07:29:00;19.55;;;8.85;;
71462;SDS011;59266;52.608;13.260;2023-03-01T07:31:28;20.98;;;9.20;;
71462;SDS011;59266;52.608;13.260;2023-03-01T07:33:55;17.58;;;8.85;;
71462;SDS011;59266;52.608;13.260;2023-03-01T07:36:22;18.85;;;9.27;;
71462;SDS011;59266;52.608;13.260;2023-03-01T07:38:49;18.15;;;8.70;;
71462;SDS011;59266;52.608;13.260;2023-03-01T07:41:15;17.77;;;8.52;;
71462;SDS011;59266;52.608;13.260;2023-03-01T07:43:42;19.08;;;8.95;;
71462;SDS011;59266;52.608;13.260;2023-03-01T07:46:09;16.88;;;8.18;;
71462;SDS011;59266;52.608;13.260;2023-03-01T07:48:35;16.45;;;8.38;;
71462;SDS011;59266;52.608;13.260;2023-03-01T07:51:03;15.15;;;8.38;;
71462;SDS011;59266;52.608;13.260;2023-03-01T07:53:31;17.70;;;9.15;;
71462;SDS011;59266;52.608;13.260;2023-03-01T07:56:00;17.13;;;9.00;;
71462;SDS011;59266;52.608;13.260;2023-03-01T08:01:06;17.80;;;9.35;;
71462;SDS011;59266;52.608;13.260;2023-03-01T08:03:34;14.77;;;8.65;;
71462;SDS011;59266;52.608;13.260;2023-03-01T08:06:01;17.30;;;9.13;;
71462;SDS011;59266;52.608;13.260;2023-03-01T08:08:29;15.57;;;8.57;;
71462;SDS011;59266;52.608;13.260;2023-03-01T08:10:57;16.23;;;9.25;;
71462;SDS011;59266;52.608;13.260;2023-03-01T08:13:24;18.30;;;9.25;;
71462;SDS011;59266;52.608;13.260;2023-03-01T08:15:51;17.73;;;10.05;;
71462;SDS011;59266;52.608;13.260;2023-03-01T08:18:19;14.73;;;8.95;;
71462;SDS011;59266;52.608;13.260;2023-03-01T08:20:47;15.15;;;8.60;;
71462;SDS011;59266;52.608;13.260;2023-03-01T08:23:13;14.13;;;7.22;;
71462;SDS011;59266;52.608;13.260;2023-03-01T08:25:40;13.52;;;7.20;;
71462;SDS011;59266;52.608;13.260;2023-03-01T08:28:06;13.43;;;7.18;;
71462;SDS011;59266;52.608;13.260;2023-03-01T08:30:34;12.77;;;7.00;;
71462;SDS011;59266;52.608;13.260;2023-03-01T08:33:01;13.10;;;6.80;;
71462;SDS011;59266;52.608;13.260;2023-03-01T08:35:27;15.20;;;7.65;;
71462;SDS011;59266;52.608;13.260;2023-03-01T08:37:54;15.85;;;7.63;;
71462;SDS011;59266;52.608;13.260;2023-03-01T08:40:21;11.55;;;6.78;;
71462;SDS011;59266;52.608;13.260;2023-03-01T08:42:48;17.10;;;7.78;;
71462;SDS011;59266;52.608;13.260;2023-03-01T08:45:17;13.50;;;7.38;;
71462;SDS011;59266;52.608;13.260;2023-03-01T08:47:44;13.95;;;7.40;;
71462;SDS011;59266;52.608;13.260;2023-03-01T08:50:12;15.60;;;7.40;;
71462;SDS011;59266;52.608;13.260;2023-03-01T08:52:39;12.50;;;6.80;;
71462;SDS011;59266;52.608;13.260;2023-03-01T08:55:06;12.85;;;7.13;;
71462;SDS011;59266;52.608;13.260;2023-03-01T08:57:34;11.13;;;6.32;;
71462;SDS011;59266;52.608;13.260;2023-03-01T09:00:01;11.18;;;6.47;;
71462;SDS011;59266;52.608;13.260;2023-03-01T09:02:27;13.70;;;6.03;;
71462;SDS011;59266;52.608;13.260;2023-03-01T09:04:54;14.80;;;6.50;;
71462;SDS011;59266;52.608;13.260;2023-03-01T09:07:21;12.32;;;6.05;;
71462;SDS011;59266;52.608;13.260;2023-03-01T09:09:48;12.25;;;5.53;;
71462;SDS011;59266;52.608;13.260;2023-03-01T09:12:14;14.45;;;6.35;;
71462;SDS011;59266;52.608;13.260;2023-03-01T09:14:41;12.35;;;5.88;;
71462;SDS011;59266;52.608;13.260;2023-03-01T09:17:08;14.93;;;5.45;;
71462;SDS011;59266;52.608;13.260;2023-03-01T09:19:34;12.60;;;5.00;;
71462;SDS011;59266;52.608;13.260;2023-03-01T09:22:02;9.57;;;4.63;;
71462;SDS011;59266;52.608;13.260;2023-03-01T09:24:29;9.95;;;4.20;;
71462;SDS011;59266;52.608;13.260;2023-03-01T09:26:56;12.90;;;4.20;;
71462;SDS011;59266;52.608;13.260;2023-03-01T09:29:23;11.35;;;4.18;;
71462;SDS011;59266;52.608;13.260;2023-03-01T09:31:50;9.45;;;4.30;;
71462;SDS011;59266;52.608;13.260;2023-03-01T09:34:16;9.85;;;4.20;;
71462;SDS011;59266;52.608;13.260;2023-03-01T09:36:49;12.07;;;4.05;;
71462;SDS011;59266;52.608;13.260;2023-03-01T09:39:17;9.75;;;4.25;;
71462;SDS011;59266;52.608;13.260;2023-03-01T09:44:18;11.30;;;4.00;;
71462;SDS011;59266;52.608;13.260;2023-03-01T09:46:46;11.35;;;4.38;;
71462;SDS011;59266;52.608;13.260;2023-03-01T09:49:23;11.18;;;3.63;;
71462;SDS011;59266;52.608;13.260;2023-03-01T09:54:26;9.50;;;3.20;;
71462;SDS011;59266;52.608;13.260;2023-03-01T09:56:57;9.65;;;2.97;;
71462;SDS011;59266;52.608;13.260;2023-03-01T09:59:33;9.63;;;3.28;;
71462;SDS011;59266;52.608;13.260;2023-03-01T10:05:36;13.18;;;3.40;;
71462;SDS011;59266;52.608;13.260;2023-03-01T10:10:52;10.70;;;3.20;;
71462;SDS011;59266;52.608;13.260;2023-03-01T10:13:21;10.02;;;3.25;;
71462;SDS011;59266;52.608;13.260;2023-03-01T10:15:56;10.45;;;3.60;;
71462;SDS011;59266;52.608;13.260;2023-03-01T10:18:27;9.98;;;3.40;;
71462;SDS011;59266;52.608;13.260;2023-03-01T10:20:57;9.02;;;3.60;;
71462;SDS011;59266;52.608;13.260;2023-03-01T10:23:26;8.52;;;3.17;;
71462;SDS011;59266;52.608;13.260;2023-03-01T10:26:19;8.38;;;2.60;;
71462;SDS011;59266;52.608;13.260;2023-03-01T10:29:01;8.55;;;3.10;;
71462;SDS011;59266;52.608;13.260;2023-03-01T10:31:44;9.93;;;3.30;;
71462;SDS011;59266;52.608;13.260;2023-03-01T10:34:16;7.70;;;2.92;;
71462;SDS011;59266;52.608;13.260;2023-03-01T10:36:47;8.27;;;2.88;;
71462;SDS011;59266;52.608;13.260;2023-03-01T10:39:19;8.63;;;2.85;;
71462;SDS011;59266;52.608;13.260;2023-03-01T10:47:23;7.38;;;2.97;;
71462;SDS011;59266;52.608;13.260;2023-03-01T10:49:56;8.38;;;2.72;;
71462;SDS011;59266;52.608;13.260;2023-03-01T10:52:37;8.43;;;2.85;;
71462;SDS011;59266;52.608;13.260;2023-03-01T10:57:43;6.55;;;2.60;;
71462;SDS011;59266;52.608;13.260;2023-03-01T11:00:15;8.15;;;2.72;;
71462;SDS011;59266;52.608;13.260;2023-03-01T11:03:11;7.13;;;2.60;;
71462;SDS011;59266;52.608;13.260;2023-03-01T11:05:50;7.53;;;3.00;;
71462;SDS011;59266;52.608;13.260;2023-03-01T11:08:28;8.75;;;2.72;;
71462;SDS011;59266;52.608;13.260;2023-03-01T11:11:04;6.03;;;2.45;;
71462;SDS011;59266;52.608;13.260;2023-03-01T11:13:52;6.97;;;2.60;;
71462;SDS011;59266;52.608;13.260;2023-03-01T11:16:24;9.27;;;2.50;;
71462;SDS011;59266;52.608;13.260;2023-03-01T11:21:35;6.35;;;2.53;;
71462;SDS011;59266;52.608;13.260;2023-03-01T11:24:05;6.00;;;2.00;;
71462;SDS011;59266;52.608;13.260;2023-03-01T11:26:38;6.32;;;2.17;;
71462;SDS011;59266;52.608;13.260;2023-03-01T11:29:21;7.10;;;2.35;;
71462;SDS011;59266;52.608;13.260;2023-03-01T11:32:08;7.55;;;2.20;;
71462;SDS011;59266;52.608;13.260;2023-03-01T11:34:40;7.10;;;2.30;;
71462;SDS011;59266;52.608;13.260;2023-03-01T11:40:03;6.78;;;2.40;;
71462;SDS011;59266;52.608;13.260;2023-03-01T11:42:42;7.18;;;2.15;;
71462;SDS011;59266;52.608;13.260;2023-03-01T11:45:20;6.25;;;2.22;;
71462;SDS011;59266;52.608;13.260;2023-03-01T11:47:54;6.80;;;2.08;;
71462;SDS011;59266;52.608;13.260;2023-03-01T11:50:44;5.10;;;1.80;;
71462;SDS011;59266;52.608;13.260;2023-03-01T11:53:19;8.50;;;2.40;;
71462;SDS011;59266;52.608;13.260;2023-03-01T11:55:59;6.13;;;2.30;;
71462;SDS011;59266;52.608;13.260;2023-03-01T12:04:26;6.28;;;2.35;;
71462;SDS011;59266;52.608;13.260;2023-03-01T12:07:07;8.48;;;2.47;;
71462;SDS011;59266;52.608;13.260;2023-03-01T12:18:38;5.70;;;1.88;;
71462;SDS011;59266;52.608;13.260;2023-03-01T12:21:30;6.45;;;1.92;;
71462;SDS011;59266;52.608;13.260;2023-03-01T12:24:18;5.88;;;2.13;;
71462;SDS011;59266;52.608;13.260;2023-03-01T12:26:56;6.47;;;2.28;;
71462;SDS011;59266;52.608;13.260;2023-03-01T12:30:09;5.43;;;2.25;;
71462;SDS011;59266;52.608;13.260;2023-03-01T12:33:10;7.70;;;2.30;;
71462;SDS011;59266;52.608;13.260;2023-03-01T12:36:10;6.18;;;2.20;;
71462;SDS011;59266;52.608;13.260;2023-03-01T12:42:08;7.07;;;2.63;;
71462;SDS011;59266;52.608;13.260;2023-03-01T12:45:12;7.72;;;2.92;;
71462;SDS011;59266;52.608;13.260;2023-03-01T12:48:03;7.13;;;2.35;;
71462;SDS011;59266;52.608;13.260;2023-03-01T12:50:42;9.15;;;3.17;;
71462;SDS011;59266;52.608;13.260;2023-03-01T12:53:16;7.75;;;2.90;;
71462;SDS011;59266;52.608;13.260;2023-03-01T12:55:49;6.68;;;2.42;;
71462;SDS011;59266;52.608;13.260;2023-03-01T12:58:35;8.75;;;2.55;;
71462;SDS011;59266;52.608;13.260;2023-03-01T13:17:49;6.65;;;2.40;;
71462;SDS011;59266;52.608;13.260;2023-03-01T13:20:21;7.80;;;2.40;;
71462;SDS011;59266;52.608;13.260;2023-03-01T13:28:46;6.95;;;2.58;;
71462;SDS011;59266;52.608;13.260;2023-03-01T13:33:52;10.10;;;2.65;;
71462;SDS011;59266;52.608;13.260;2023-03-01T13:44:26;7.32;;;2.20;;
71462;SDS011;59266;52.608;13.260;2023-03-01T13:46:59;5.78;;;2.10;;
71462;SDS011;59266;52.608;13.260;2023-03-01T13:49:43;6.25;;;2.20;;
71462;SDS011;59266;52.608;13.260;2023-03-01T13:57:42;5.53;;;2.13;;
71462;SDS011;59266;52.608;13.260;2023-03-01T14:03:02;7.50;;;2.30;;
71462;SDS011;59266;52.608;13.260;2023-03-01T14:05:32;6.55;;;2.30;;
71462;SDS011;59266;52.608;13.260;2023-03-01T14:07:59;7.82;;;2.60;;
71462;SDS011;59266;52.608;13.260;2023-03-01T14:10:29;6.32;;;2.30;;
71462;SDS011;59266;52.608;13.260;2023-03-01T14:16:12;6.57;;;2.20;;
71462;SDS011;59266;52.608;13.260;2023-03-01T14:19:00;7.18;;;2.03;;
71462;SDS011;59266;52.608;13.260;2023-03-01T14:22:19;8.30;;;2.40;;
71462;SDS011;59266;52.608;13.260;2023-03-01T14:24:58;7.35;;;2.45;;
71462;SDS011;59266;52.608;13.260;2023-03-01T14:27:28;7.43;;;2.10;;
71462;SDS011;59266;52.608;13.260;2023-03-01T14:30:00;5.43;;;2.10;;
71462;SDS011;59266;52.608;13.260;2023-03-01T14:32:30;5.70;;;1.95;;
71462;SDS011;59266;52.608;13.260;2023-03-01T14:34:59;9.18;;;2.42;;
71462;SDS011;59266;52.608;13.260;2023-03-01T14:37:27;5.30;;;1.85;;
71462;SDS011;59266;52.608;13.260;2023-03-01T14:39:56;11.88;;;2.08;;
71462;SDS011;59266;52.608;13.260;2023-03-01T14:42:28;8.38;;;2.30;;
71462;SDS011;59266;52.608;13.260;2023-03-01T14:44:57;5.45;;;1.77;;
71462;SDS011;59266;52.608;13.260;2023-03-01T14:47:31;6.68;;;1.80;;
71462;SDS011;59266;52.608;13.260;2023-03-01T14:50:01;8.82;;;2.03;;
71462;SDS011;59266;52.608;13.260;2023-03-01T14:52:34;5.68;;;1.83;;
71462;SDS011;59266;52.608;13.260;2023-03-01T14:55:14;8.05;;;1.60;;
71462;SDS011;59266;52.608;13.260;2023-03-01T14:57:49;5.07;;;1.58;;
71462;SDS011;59266;52.608;13.260;2023-03-01T15:02:47;5.95;;;1.50;;
71462;SDS011;59266;52.608;13.260;2023-03-01T15:05:24;4.28;;;1.50;;
71462;SDS011;59266;52.608;13.260;2023-03-01T15:07:55;7.05;;;1.60;;
71462;SDS011;59266;52.608;13.260;2023-03-01T15:10:29;5.30;;;1.30;;
71462;SDS011;59266;52.608;13.260;2023-03-01T15:13:19;5.85;;;1.60;;
71462;SDS011;59266;52.608;13.260;2023-03-01T15:15:48;5.80;;;1.60;;
71462;SDS011;59266;52.608;13.260;2023-03-01T15:18:18;4.38;;;1.33;;
71462;SDS011;59266;52.608;13.260;2023-03-01T15:21:08;5.80;;;1.75;;
71462;SDS011;59266;52.608;13.260;2023-03-01T15:23:36;5.78;;;1.48;;
71462;SDS011;59266;52.608;13.260;2023-03-01T15:26:04;5.80;;;1.63;;
71462;SDS011;59266;52.608;13.260;2023-03-01T15:28:32;6.40;;;1.60;;
71462;SDS011;59266;52.608;13.260;2023-03-01T15:31:18;6.53;;;1.60;;
71462;SDS011;59266;52.608;13.260;2023-03-01T15:33:47;5.43;;;1.90;;
71462;SDS011;59266;52.608;13.260;2023-03-01T15:36:30;6.13;;;1.50;;
71462;SDS011;59266;52.608;13.260;2023-03-01T15:39:05;4.35;;;1.20;;
71462;SDS011;59266;52.608;13.260;2023-03-01T15:41:50;5.15;;;1.25;;
71462;SDS011;59266;52.608;13.260;2023-03-01T15:44:17;7.15;;;1.45;;
71462;SDS011;59266;52.608;13.260;2023-03-01T15:46:55;5.75;;;1.30;;
71462;SDS011;59266;52.608;13.260;2023-03-01T15:49:33;5.93;;;1.42;;
71462;SDS011;59266;52.608;13.260;2023-03-01T15:52:13;6.15;;;1.50;;
71462;SDS011;59266;52.608;13.260;2023-03-01T15:54:47;7.30;;;1.52;;
71462;SDS011;59266;52.608;13.260;2023-03-01T15:57:14;4.28;;;1.33;;
71462;SDS011;59266;52.608;13.260;2023-03-01T15:59:41;12.35;;;1.50;;
71462;SDS011;59266;52.608;13.260;2023-03-01T16:02:16;8.18;;;1.88;;
71462;SDS011;59266;52.608;13.260;2023-03-01T16:04:43;6.22;;;1.80;;
71462;SDS011;59266;52.608;13.260;2023-03-01T16:07:10;8.07;;;1.50;;
71462;SDS011;59266;52.608;13.260;2023-03-01T16:09:44;3.28;;;1.00;;
71462;SDS011;59266;52.608;13.260;2023-03-01T16:12:14;9.70;;;5.18;;
71462;SDS011;59266;52.608;13.260;2023-03-01T16:14:42;3.65;;;1.40;;
71462;SDS011;59266;52.608;13.260;2023-03-01T16:17:09;3.60;;;1.15;;
71462;SDS011;59266;52.608;13.260;2023-03-01T16:19:37;3.90;;;1.15;;
71462;SDS011;59266;52.608;13.260;2023-03-01T16:22:04;3.20;;;1.10;;
71462;SDS011;59266;52.608;13.260;2023-03-01T16:24:31;4.50;;;1.30;;
71462;SDS011;59266;52.608;13.260;2023-03-01T16:26:57;2.88;;;1.05;;